Warrenton, MO (63383)

6:22 PM CDT on May 30, 2015 (GMT -0500)
Macedonia/Post Oak | | Change Station
CLOSE
Current Station
Personal Weather Station
Location: Warrenton, MO
Elevation: 912 ft
Nearby Weather Stations
Active Advisory: Flood Warning

Elev 912 ft 38.73 °N, 91.22 °W | Updated 2 minutes ago

Mostly Cloudy
Mostly Cloudy
68.7 °F
Feels Like 68.7 °F
N
1.0
Wind Variable Wind from North
Gusts 1.0 mph

Today
High -- | Low -- °F
--% Chance of Precip.
Yesterday
High -- | Low -- °F
Precip. -- in
5:42 AM 8:22 PM
Waxing Gibbous, 92% visible
Pressure 29.95 in
Visibility 10.0 miles
Clouds Few 2500 ft
Mostly Cloudy 3900 ft
Dew Point 65 °F
Humidity 87%
Rainfall 0.73 in
Snow Depth Not available.
UV 1 out of 12
Pollen 3.10 out of 12
Air Quality Not available.
Flu Activity Sporadic
METAR KFYG 302255Z AUTO 33009KT 10SM FEW025 BKN039 22/19 A2995 RMK AO2

More Conditions Fewer Conditions

Pressure 29.95 in
Visibility 10.0 miles
Clouds Few 2500 ft
Mostly Cloudy 3900 ft
Dew Point 65 °F
Humidity 87%
Rainfall 0.73 in
Snow Depth Not available.
UV 1 out of 12
Pollen 3.10 out of 12
Air Quality Not available.
Flu Activity Sporadic
METAR KFYG 302255Z AUTO 33009KT 10SM FEW025 BKN039 22/19 A2995 RMK AO2

More Conditions Fewer Conditions

10-Day Weather Forecast

Almanac

Astronomy

May. 30, 2015 Rise Set
Actual Time
Civil Twilight
Nautical Twilight
Astronomical Twilight
Moon
Length of Visible Light
Length of Day
Tomorrow will be .
, % of the Moon is Illuminated

Today's Extremes

State Highs State Lows

Community

WunderPhotos

Upload Photos

1,825,551 photos uploaded!

WunderBlogs® & News

Nearby

Air Quality

  Air Quality AQ Index Pollutant
Not available.

Snow Depth

Station Depth Elevation

Earthquake Activity

City Distance Mag. Time & Date
Minimum magnitude displayed is 2.5.

Coastal Water Temperatures

Place Temperature

Stations

Nearby Weather Stations

Station Location Temp. Windchill Dew Point Humidity Wind Precip. Elev Updated Type
                   
Flood Warning
Statement as of 10:42 AM CDT on May 30, 2015

The Flood Warning continues for
the Missouri River at Washington
* until Monday.
* At 9:45 am Saturday the stage was 20.5 feet.
* Flood stage is 20.0 feet.
* Minor flooding is occurring and minor flooding is forecast.
* Forecast: the river will crest near 21.2 feet early tomorrow afternoon, then
expected to fall below flood stage Monday afternoon.
* Impact: at 21.0 feet... wastewater plant turns pumps on.


                   Fld latest 7 a.M. Forecast
location stg obs stg 05/31 06/01 06/02 06/03 06/04

Missouri River
Washington 20.0 20.52 21.1 20.8 18.9 17.2 14.8




Lat... Lon 3866 9119 3861 9123 3851 9089 3859 9072
      3865 9078